Time;durP1;ratioP1;P1;durP2;ratioP2;P2;SDS_P1;SDS_P2;PMS_P1;PMS_P2;Temp;Humidity;BMP_temperature;BMP_pressure;BME280_temperature;BME280_humidity;BME280_pressure;Samples;Min_cycle;Max_cycle;Signal;HPM_P1;HPM_P2
2021/11/27 00:02:19;;;;;;;;;16.75;16.25;;;;;11.62;73.58;100229.97;146609;566;45023;-75
2021/11/27 00:05:12;;;;;;;;;26.25;24.75;;;;;11.69;74.16;100221.59;146607;620;46008;-82
2021/11/27 00:08:06;;;;;;;;;76.25;65.25;;;;;11.71;74.01;100215.66;146606;608;46014;-75
2021/11/27 00:11:00;;;;;;;;;23.50;20.50;;;;;11.71;73.27;100227.72;146609;571;46020;-75
2021/11/27 00:13:54;;;;;;;;;37.75;32.50;;;;;11.65;73.42;100217.09;146607;599;46012;-76
2021/11/27 00:16:46;;;;;;;;;30.00;28.00;;;;;11.61;73.63;100216.09;146610;627;46020;-76
2021/11/27 00:19:39;;;;;;;;;34.00;28.50;;;;;11.60;73.66;100226.44;146607;688;46016;-76
2021/11/27 00:22:31;;;;;;;;;35.50;29.75;;;;;10.54;73.49;100033.75;146608;576;46021;-77
2021/11/27 00:25:24;;;;;;;;;31.25;29.75;;;;;11.66;74.11;100229.28;146608;597;46020;-75
2021/11/27 00:28:16;;;;;;;;;40.00;33.00;;;;;11.68;74.35;100240.59;146608;586;46010;-76
2021/11/27 00:31:12;;;;;;;;;37.00;32.75;;;;;11.69;74.12;100252.78;146605;586;46012;-75
2021/11/27 00:34:05;;;;;;;;;54.25;44.00;;;;;11.71;74.31;100232.91;146608;647;46020;-74
2021/11/27 00:36:57;;;;;;;;;60.00;46.50;;;;;11.74;74.07;100240.84;146605;656;46912;-79
2021/11/27 00:39:49;;;;;;;;;56.00;43.50;;;;;11.73;74.87;100239.06;146607;565;46020;-86
2021/11/27 00:42:42;;;;;;;;;62.50;49.25;;;;;11.74;74.55;100233.94;146607;611;46012;-87
2021/11/27 00:45:34;;;;;;;;;52.75;42.75;;;;;11.72;74.81;100239.91;146609;608;45021;-86
2021/11/27 00:48:26;;;;;;;;;58.00;45.75;;;;;11.68;74.86;100244.09;146606;668;46014;-80
2021/11/27 00:51:23;;;;;;;;;54.50;44.25;;;;;11.64;75.42;100244.78;146609;625;45020;-77
2021/11/27 00:54:15;;;;;;;;;55.75;43.50;;;;;11.60;74.87;100247.22;146605;571;46012;-78
2021/11/27 00:57:08;;;;;;;;;44.75;36.00;;;;;11.56;75.14;100235.84;146608;565;46010;-75
2021/11/27 01:00:00;;;;;;;;;20.75;20.75;;;;;11.49;76.55;100232.06;146605;606;46017;-76
2021/11/27 01:02:53;;;;;;;;;23.50;21.75;;;;;11.56;76.68;100223.72;146610;603;46010;-77
2021/11/27 01:05:46;;;;;;;;;29.50;27.25;;;;;11.65;76.35;100232.69;146605;615;46016;-77
2021/11/27 01:08:40;;;;;;;;;30.50;28.50;;;;;11.70;76.28;100238.94;146605;567;46020;-76
2021/11/27 01:11:39;;;;;;;;;31.00;26.00;;;;;11.76;76.25;100228.81;146607;616;46012;-75
2021/11/27 01:14:34;;;;;;;;;52.00;41.25;;;;;11.79;76.48;100234.13;146606;628;47031;-74
2021/11/27 01:17:27;;;;;;;;;46.75;36.25;;;;;11.80;77.16;100203.00;146607;671;46012;-77
2021/11/27 01:20:22;;;;;;;;;37.00;32.75;;;;;11.79;77.40;100214.22;146611;592;45023;-74
2021/11/27 01:23:15;;;;;;;;;35.75;30.50;;;;;11.76;77.07;100208.91;146604;713;46016;-76
2021/11/27 01:26:08;;;;;;;;;28.00;25.50;;;;;11.77;77.60;100191.59;146608;606;45020;-74
2021/11/27 01:29:00;;;;;;;;;20.00;17.25;;;;;11.76;77.29;100192.44;146607;673;46013;-75
2021/11/27 01:31:53;;;;;;;;;17.25;14.25;;;;;11.76;78.80;100192.44;146608;614;46020;-75
2021/11/27 01:34:47;;;;;;;;;15.75;11.50;;;;;11.79;80.71;100171.78;146604;627;47015;-75
2021/11/27 01:37:39;;;;;;;;;12.00;10.00;;;;;11.87;81.97;100162.59;146607;646;46020;-75
2021/11/27 01:40:32;;;;;;;;;39.50;32.75;;;;;11.99;80.26;100185.53;146605;572;46012;-75
2021/11/27 01:43:24;;;;;;;;;57.50;45.25;;;;;12.04;78.14;100178.78;146610;605;46010;-79
2021/11/27 01:46:17;;;;;;;;;52.25;42.00;;;;;12.06;77.77;100179.75;146601;614;48012;-80
2021/11/27 01:49:12;;;;;;;;;34.00;30.75;;;;;12.06;77.34;100186.66;146608;572;46014;-79
2021/11/27 01:52:04;;;;;;;;;33.25;30.00;;;;;12.01;77.04;100179.56;146605;577;46016;-82
2021/11/27 01:54:56;;;;;;;;;39.00;35.00;;;;;11.98;76.81;100188.97;146611;565;45020;-80
2021/11/27 01:57:49;;;;;;;;;57.25;45.25;;;;;11.93;76.72;100194.00;146602;579;46013;-80
2021/11/27 02:00:45;;;;;;;;;46.75;38.50;;;;;11.89;76.49;100202.50;146609;617;46020;-79
2021/11/27 02:03:37;;;;;;;;;47.75;38.25;;;;;11.81;76.91;100190.91;146606;592;46017;-78
2021/11/27 02:06:31;;;;;;;;;39.00;33.25;;;;;11.73;76.89;100201.00;146606;631;46021;-79
2021/11/27 02:09:29;;;;;;;;;53.50;42.75;;;;;11.66;77.24;100222.38;146607;659;46012;-80
2021/11/27 02:12:21;;;;;;;;;41.25;35.00;;;;;11.65;77.41;100222.28;146611;569;45021;-78
2021/11/27 02:15:15;;;;;;;;;60.75;48.75;;;;;11.65;77.12;100205.03;146604;581;46911;-81
2021/11/27 02:18:07;;;;;;;;;52.00;40.50;;;;;11.70;77.91;100242.44;146606;587;46020;-80
2021/11/27 02:21:04;;;;;;;;;46.25;38.00;;;;;11.70;77.99;100216.47;146603;581;46017;-78
2021/11/27 02:23:58;;;;;;;;;41.50;33.75;;;;;11.69;77.63;100209.50;146609;618;46010;-83
2021/11/27 02:26:51;;;;;;;;;32.50;28.50;;;;;11.70;78.24;100187.00;146603;592;46016;-86
2021/11/27 02:29:45;;;;;;;;;27.25;26.00;;;;;11.69;78.29;100196.53;146610;640;45020;-82
2021/11/27 02:32:37;;;;;;;;;35.75;30.75;;;;;11.65;79.23;100185.94;146603;574;46016;-81
2021/11/27 02:35:29;;;;;;;;;28.00;23.00;;;;;11.60;79.24;100200.47;146608;650;45021;-85
2021/11/27 02:38:22;;;;;;;;;40.50;29.25;;;;;11.55;79.32;100198.56;146606;613;46016;-85
2021/11/27 02:41:14;;;;;;;;;39.50;33.75;;;;;11.56;79.24;100215.94;146609;573;46010;-82
2021/11/27 02:44:08;;;;;;;;;42.75;31.50;;;;;11.60;78.84;100208.28;146606;582;46012;-87
2021/11/27 02:47:02;;;;;;;;;39.25;33.00;;;;;11.60;78.74;100219.53;146609;631;46020;-80
2021/11/27 02:49:54;;;;;;;;;38.50;32.25;;;;;11.60;79.15;100208.28;146606;600;46012;-79
2021/11/27 02:52:47;;;;;;;;;29.50;27.75;;;;;11.51;79.55;100193.22;146607;606;46020;-80
2021/11/27 02:55:39;;;;;;;;;28.00;24.25;;;;;11.40;79.24;100223.97;146604;583;46912;-81
2021/11/27 02:58:31;;;;;;;;;24.25;23.50;;;;;11.31;79.01;100226.19;146609;581;46010;-83
2021/11/27 03:01:24;;;;;;;;;24.50;23.00;;;;;11.31;79.44;100229.66;146607;591;46016;-79
2021/11/27 03:04:18;;;;;;;;;27.75;27.00;;;;;11.24;80.33;100230.22;146608;566;46021;-76
2021/11/27 03:07:11;;;;;;;;;29.00;26.50;;;;;11.20;80.70;100223.13;146603;581;46016;-76
2021/11/27 03:10:03;;;;;;;;;32.00;27.75;;;;;11.17;80.85;100206.56;146605;586;46020;-76
2021/11/27 03:12:56;;;;;;;;;27.50;23.00;;;;;11.09;80.34;100209.75;146603;611;46017;-79
2021/11/27 03:15:48;;;;;;;;;30.00;26.25;;;;;11.07;80.34;100211.38;146608;605;47010;-73
2021/11/27 03:18:40;;;;;;;;;23.25;22.00;;;;;11.09;79.93;100224.44;146608;668;45017;-88
2021/11/27 03:21:32;;;;;;;;;20.50;18.75;;;;;11.09;81.18;100212.34;146607;615;46020;-89
2021/11/27 03:24:25;;;;;;;;;22.25;18.00;;;;;11.09;80.57;100207.16;146603;618;46016;-89
2021/11/27 03:27:18;;;;;;;;;28.25;23.75;;;;;10.11;80.53;100037.13;146608;581;46010;-89
2021/11/27 03:30:17;;;;;;;;;28.00;24.75;;;;;11.10;80.68;100208.91;146605;684;46911;-89
2021/11/27 03:33:09;;;;;;;;;25.00;22.00;;;;;11.07;81.08;100224.34;146609;637;46029;-90
2021/11/27 03:36:02;;;;;;;;;22.50;21.00;;;;;11.05;80.68;100219.91;146605;599;46012;-88
2021/11/27 03:38:55;;;;;;;;;13.75;12.00;;;;;11.03;80.03;100206.91;146606;580;47010;-88
2021/11/27 03:41:47;;;;;;;;;12.50;11.25;;;;;11.02;80.38;100217.19;146609;578;46016;-88
2021/11/27 03:44:39;;;;;;;;;15.25;13.50;;;;;9.96;80.33;100041.66;146608;571;46020;-84
2021/11/27 03:47:31;;;;;;;;;26.25;22.50;;;;;11.04;80.19;100231.13;146607;601;47014;-84
2021/11/27 03:50:23;;;;;;;;;31.25;26.75;;;;;11.06;79.89;100238.16;146609;580;45916;-85
2021/11/27 03:53:28;;;;;;;;;39.75;34.25;;;;;11.07;80.02;100232.12;146605;625;46012;-83
2021/11/27 03:56:26;;;;;;;;;22.00;21.50;;;;;11.04;80.36;100223.34;146611;588;46011;-84
2021/11/27 03:59:18;;;;;;;;;24.25;22.75;;;;;10.98;80.08;100244.72;146607;571;45016;-85
2021/11/27 04:02:11;;;;;;;;;31.00;24.25;;;;;10.96;79.71;100246.34;146608;585;47010;-83
2021/11/27 04:05:03;;;;;;;;;33.00;28.75;;;;;10.91;81.57;100221.06;146606;677;47012;-82
2021/11/27 04:08:00;;;;;;;;;33.25;30.25;;;;;10.88;80.62;100219.22;146606;636;46020;-85
2021/11/27 04:10:53;;;;;;;;;35.75;31.50;;;;;10.82;80.33;100206.87;146608;651;46012;-88
2021/11/27 04:13:46;;;;;;;;;31.00;27.25;;;;;10.80;80.57;100224.06;146610;575;45020;-82
2021/11/27 04:16:38;;;;;;;;;26.00;26.00;;;;;10.81;79.91;100228.47;146605;608;46016;-83
2021/11/27 04:19:31;;;;;;;;;36.75;31.25;;;;;10.79;80.06;100222.31;146609;615;46010;-82
2021/11/27 04:22:23;;;;;;;;;28.75;25.00;;;;;10.79;80.16;100218.84;146609;587;45016;-81
2021/11/27 04:25:16;;;;;;;;;20.25;19.50;;;;;10.71;80.66;100215.03;146611;646;45020;-80
2021/11/27 04:28:08;;;;;;;;;24.75;21.00;;;;;10.64;80.69;100219.06;146605;703;47012;-83
2021/11/27 04:31:01;;;;;;;;;20.50;19.00;;;;;10.61;80.82;100222.41;146608;591;46020;-82
2021/11/27 04:33:55;;;;;;;;;11.75;11.75;;;;;10.63;80.49;100236.34;146604;606;46016;-78
2021/11/27 04:36:47;;;;;;;;;15.50;13.50;;;;;10.66;80.32;100251.16;146609;577;45020;-78
2021/11/27 04:39:40;;;;;;;;;13.50;12.00;;;;;10.67;79.99;100263.28;146603;601;47012;-84
2021/11/27 04:42:32;;;;;;;;;14.50;13.25;;;;;10.66;80.23;100237.31;146609;633;46010;-76
2021/11/27 04:45:25;;;;;;;;;12.50;10.25;;;;;10.60;80.31;100223.25;146606;578;46014;-84
2021/11/27 04:48:17;;;;;;;;;9.50;9.50;;;;;10.55;80.03;100232.53;146608;591;46010;-84
2021/11/27 04:51:10;;;;;;;;;9.00;8.50;;;;;10.54;79.78;100240.25;146609;565;46012;-83
2021/11/27 04:54:02;;;;;;;;;10.00;8.25;;;;;10.51;79.96;100243.59;146609;691;46020;-83
2021/11/27 04:56:54;;;;;;;;;5.25;5.25;;;;;10.48;80.43;100247.75;146608;574;45912;-82
2021/11/27 04:59:47;;;;;;;;;10.50;8.50;;;;;10.44;80.05;100244.16;146608;642;46010;-83
2021/11/27 05:02:40;;;;;;;;;101.00;78.75;;;;;10.44;79.93;100253.63;146606;573;46012;-82
2021/11/27 05:05:33;;;;;;;;;15.00;12.00;;;;;10.42;80.50;100250.06;146610;601;46020;-83
2021/11/27 05:08:25;;;;;;;;;11.50;9.75;;;;;10.44;81.00;100256.22;146607;661;46012;-83
2021/11/27 05:11:17;;;;;;;;;119.00;99.00;;;;;10.44;80.53;100254.50;146612;569;46011;-82
2021/11/27 05:14:09;;;;;;;;;32.50;26.00;;;;;10.47;80.88;100254.66;146609;563;46012;-82
2021/11/27 05:17:01;;;;;;;;;65.50;50.25;;;;;9.56;80.39;100095.97;146605;563;46010;-82
2021/11/27 05:19:54;;;;;;;;;30.25;27.25;;;;;10.49;81.37;100258.16;146607;564;45912;-81
2021/11/27 05:22:46;;;;;;;;;103.50;80.50;;;;;10.50;81.18;100256.47;146610;649;45020;-80
2021/11/27 05:25:38;;;;;;;;;33.75;29.75;;;;;10.50;81.68;100253.87;146605;570;46013;-80
2021/11/27 05:28:30;;;;;;;;;36.75;31.25;;;;;10.50;81.39;100259.97;146611;608;45020;-86
2021/11/27 05:31:23;;;;;;;;;25.50;21.00;;;;;10.53;82.23;100249.72;146604;591;46912;-85
2021/11/27 05:37:34;;;;;;;;;42.75;36.00;;;;;10.77;80.77;100236.03;146606;672;46016;-86
2021/11/27 05:40:26;;;;;;;;;35.75;27.25;;;;;10.81;80.91;100244.03;146611;577;46011;-84
2021/11/27 05:43:18;;;;;;;;;22.25;18.25;;;;;10.84;81.95;100248.44;146605;609;46012;-81
2021/11/27 05:46:11;;;;;;;;;25.75;24.25;;;;;10.88;81.02;100271.09;146609;609;46010;-80
2021/11/27 05:49:03;;;;;;;;;31.00;26.00;;;;;10.93;80.78;100273.88;146605;598;47012;-76
2021/11/27 05:51:55;;;;;;;;;19.75;18.00;;;;;10.99;80.73;100272.44;146609;603;46020;-82
2021/11/27 05:54:47;;;;;;;;;75.75;61.50;;;;;11.05;80.51;100280.47;146604;666;47012;-83
2021/11/27 05:57:39;;;;;;;;;26.50;22.50;;;;;11.10;80.12;100278.09;146606;619;46020;-80
2021/11/27 06:00:32;;;;;;;;;23.25;20.00;;;;;11.20;79.94;100288.00;146606;661;46012;-80
2021/11/27 06:03:24;;;;;;;;;16.00;15.75;;;;;11.30;81.11;100295.34;146609;606;45021;-82
2021/11/27 06:06:16;;;;;;;;;23.50;22.00;;;;;11.41;80.50;100303.59;146604;643;46911;-87
2021/11/27 06:09:08;;;;;;;;;26.75;23.00;;;;;11.50;80.52;100308.28;146608;623;46010;-84
2021/11/27 06:12:01;;;;;;;;;31.50;28.25;;;;;11.59;80.37;100298.28;146605;566;46016;-80
2021/11/27 06:14:53;;;;;;;;;49.75;39.75;;;;;11.64;79.79;100306.22;146606;620;47010;-81
2021/11/27 06:17:45;;;;;;;;;29.00;26.75;;;;;11.69;79.88;100310.78;146606;564;46013;-80
2021/11/27 06:20:38;;;;;;;;;35.25;31.75;;;;;11.72;79.64;100317.81;146610;627;46010;-81
2021/11/27 06:23:30;;;;;;;;;35.25;31.00;;;;;11.74;79.59;100322.25;146603;566;46016;-81
2021/11/27 06:26:22;;;;;;;;;31.00;29.50;;;;;11.78;80.25;100318.06;146607;716;46021;-81
2021/11/27 06:29:14;;;;;;;;;37.50;29.75;;;;;11.98;80.22;100316.28;146606;601;46016;-81
2021/11/27 06:32:09;;;;;;;;;34.00;29.50;;;;;12.58;80.02;100301.19;146607;564;46011;-81
2021/11/27 06:35:01;;;;;;;;;35.50;32.00;;;;;13.40;77.87;100310.16;146607;607;46012;-79
2021/11/27 06:37:53;;;;;;;;;16.50;12.50;;;;;14.10;75.08;100312.38;146610;606;46027;-88
2021/11/27 06:40:46;;;;;;;;;16.50;15.75;;;;;14.54;73.84;100305.00;146605;631;46014;-88
2021/11/27 06:43:38;;;;;;;;;25.00;23.50;;;;;15.11;72.08;100303.06;146610;632;46020;-85
2021/11/27 06:46:30;;;;;;;;;51.50;41.00;;;;;15.73;71.04;100314.22;146605;650;46013;-86
2021/11/27 06:49:22;;;;;;;;;62.00;49.00;;;;;16.43;68.71;100312.31;146605;602;47020;-86
2021/11/27 06:52:15;;;;;;;;;60.50;47.75;;;;;17.09;64.87;100314.50;146607;632;46012;-88
2021/11/27 06:55:08;;;;;;;;;60.25;48.00;;;;;17.51;65.30;100289.91;146610;593;45021;-83
2021/11/27 06:58:00;;;;;;;;;48.50;39.50;;;;;17.05;65.72;100147.69;146603;569;46016;-81
2021/11/27 07:00:52;;;;;;;;;59.25;47.50;;;;;17.64;63.74;100154.66;146609;625;45021;-82
2021/11/27 07:03:45;;;;;;;;;52.00;42.25;;;;;18.98;63.18;100316.41;146608;594;46012;-76
2021/11/27 07:06:37;;;;;;;;;52.75;42.50;;;;;19.45;62.80;100332.63;146611;609;45020;-82
2021/11/27 07:09:29;;;;;;;;;58.00;45.50;;;;;19.76;61.33;100339.06;146604;614;47013;-84
2021/11/27 07:12:21;;;;;;;;;59.00;46.25;;;;;19.79;59.31;100325.94;146604;584;46020;-83
2021/11/27 07:15:14;;;;;;;;;44.50;37.75;;;;;19.70;60.35;100331.13;146606;620;47012;-87
2021/11/27 07:18:06;;;;;;;;;44.25;34.75;;;;;19.56;60.83;100332.72;146610;648;46020;-81
2021/11/27 07:20:58;;;;;;;;;36.00;29.25;;;;;19.49;61.47;100342.31;146605;569;46012;-83
2021/11/27 07:23:51;;;;;;;;;66.00;52.00;;;;;19.55;60.97;100344.12;146607;566;46010;-78
2021/11/27 07:26:44;;;;;;;;;58.00;46.50;;;;;19.53;60.56;100348.47;146604;632;46038;-81
2021/11/27 07:29:38;;;;;;;;;23.25;21.00;;;;;19.41;60.45;100358.87;146607;603;46010;-81
2021/11/27 07:32:30;;;;;;;;;1.00;0.00;;;;;19.22;60.27;100349.94;146604;605;46912;-82
2021/11/27 07:35:23;;;;;;;;;28.25;25.75;;;;;19.00;61.81;100344.44;146611;664;45020;-81
2021/11/27 07:38:15;;;;;;;;;26.50;23.50;;;;;18.87;63.01;100339.94;146607;567;46012;-81
2021/11/27 07:41:08;;;;;;;;;40.25;30.75;;;;;18.90;64.13;100350.47;146606;606;46020;-80
2021/11/27 07:44:01;;;;;;;;;30.25;27.75;;;;;18.13;64.04;100181.53;146605;704;46012;-81
2021/11/27 07:46:56;;;;;;;;;8.33;7.33;;;;;19.09;56.94;100327.91;146612;661;45030;-81
2021/11/27 07:49:48;;;;;;;;;8.67;4.67;;;;;19.10;59.22;100327.94;146608;624;46016;-83
2021/11/27 07:52:41;;;;;;;;;6.00;6.00;;;;;19.08;58.99;100334.91;146608;661;46020;-81
2021/11/27 07:55:33;;;;;;;;;10.67;6.00;;;;;19.07;60.79;100319.16;146608;566;46012;-80
2021/11/27 07:58:25;;;;;;;;;46.00;37.00;;;;;19.09;63.06;100312.13;146610;605;45034;-80
2021/11/27 08:01:17;;;;;;;;;9.33;9.33;;;;;19.06;58.61;100304.22;146606;571;46012;-81
2021/11/27 08:04:10;;;;;;;;;6.00;6.00;;;;;19.00;60.07;100314.66;146610;608;46031;-82
2021/11/27 08:07:02;;;;;;;;;5.33;5.33;;;;;18.98;61.52;100303.28;146606;605;47012;-80
2021/11/27 08:09:55;;;;;;;;;7.67;6.67;;;;;19.05;59.87;100305.09;146606;583;46021;-81
2021/11/27 08:12:47;;;;;;;;;9.00;8.33;;;;;19.12;61.85;100299.91;146607;596;46032;-80
2021/11/27 08:15:39;;;;;;;;;5.00;5.00;;;;;19.27;62.41;100312.31;146610;602;46021;-80
2021/11/27 08:18:32;;;;;;;;;4.67;4.33;;;;;19.37;57.58;100305.37;146608;671;47012;-80
2021/11/27 08:21:25;;;;;;;;;7.67;5.67;;;;;19.39;59.96;100301.91;146609;624;46020;-80
2021/11/27 08:24:17;;;;;;;;;5.67;4.33;;;;;19.47;58.27;100308.97;146607;582;46021;-82
2021/11/27 08:27:09;;;;;;;;;11.33;3.67;;;;;18.67;57.64;100155.84;146609;649;46020;-82
2021/11/27 08:30:03;;;;;;;;;10.00;9.00;;;;;19.64;61.52;100314.38;146606;564;46912;-80
2021/11/27 08:32:55;;;;;;;;;3.33;3.00;;;;;19.72;60.48;100321.50;146608;569;46020;-82
2021/11/27 08:35:48;;;;;;;;;4.67;3.67;;;;;19.84;62.56;100324.22;146605;569;46016;-81
2021/11/27 08:38:40;;;;;;;;;7.00;4.00;;;;;20.01;60.74;100324.34;146608;605;46010;-81
2021/11/27 08:41:33;;;;;;;;;5.67;5.67;;;;;20.17;58.86;100327.06;146611;674;46012;-82
2021/11/27 08:44:25;;;;;;;;;5.33;4.00;;;;;20.19;59.57;100326.19;146609;599;46020;-81
2021/11/27 08:47:17;;;;;;;;;5.33;4.67;;;;;19.44;60.15;100190.63;146607;625;46035;-82
2021/11/27 08:50:11;;;;;;;;;4.33;4.33;;;;;20.28;59.84;100309.59;146609;569;46020;-82
2021/11/27 08:53:03;;;;;;;;;16.75;13.75;;;;;20.31;59.52;100288.50;146605;696;46017;-82
2021/11/27 08:55:56;;;;;;;;;8.33;7.00;;;;;20.32;60.28;100287.66;146610;580;46020;-80
2021/11/27 08:58:48;;;;;;;;;4.67;4.67;;;;;20.25;56.69;100291.13;146606;574;46912;-83
2021/11/27 09:01:41;;;;;;;;;7.67;4.00;;;;;20.18;59.70;100282.31;146608;595;46021;-80
2021/11/27 09:04:34;;;;;;;;;3.67;2.00;;;;;20.04;56.61;100248.03;146605;634;47012;-79
2021/11/27 09:07:26;;;;;;;;;3.33;3.33;;;;;19.93;57.91;100251.47;146608;579;46037;-83
2021/11/27 09:10:19;;;;;;;;;3.67;3.67;;;;;19.83;57.24;100246.16;146606;565;46035;-80
2021/11/27 09:13:11;;;;;;;;;4.00;4.00;;;;;19.81;56.76;100245.28;146608;599;46021;-81
2021/11/27 09:16:03;;;;;;;;;10.00;9.00;;;;;19.87;58.74;100243.53;146611;636;46016;-83
2021/11/27 09:18:56;;;;;;;;;4.33;4.33;;;;;19.91;56.82;100233.06;146610;635;46010;-81
2021/11/27 09:21:50;;;;;;;;;6.00;6.00;;;;;20.03;58.35;100227.84;146602;576;46016;-83
2021/11/27 09:24:42;;;;;;;;;4.00;4.00;;;;;20.19;56.38;100223.53;146610;585;45020;-81
2021/11/27 09:27:34;;;;;;;;;5.00;3.00;;;;;20.35;55.81;100213.94;146602;617;47012;-82
2021/11/27 09:30:28;;;;;;;;;3.33;3.33;;;;;20.42;54.96;100197.28;146611;587;46010;-82
2021/11/27 09:33:21;;;;;;;;;2.67;2.67;;;;;20.51;56.24;100212.22;146606;584;46016;-84
2021/11/27 09:36:15;;;;;;;;;2.67;2.67;;;;;20.57;54.65;100211.41;146609;583;46010;-81
2021/11/27 09:39:10;;;;;;;;;4.00;3.00;;;;;20.66;55.68;100208.78;146607;571;46014;-80
2021/11/27 09:42:02;;;;;;;;;2.67;2.67;;;;;20.84;53.51;100206.19;146610;634;46010;-82
2021/11/27 09:44:57;;;;;;;;;2.33;2.00;;;;;20.97;51.57;100218.50;146607;622;46035;-80
2021/11/27 09:47:50;;;;;;;;;4.00;2.33;;;;;21.07;55.54;100229.91;146609;648;46020;-80
2021/11/27 09:50:44;;;;;;;;;4.00;2.33;;;;;21.14;50.56;100226.38;146605;565;47016;-80
2021/11/27 09:53:37;;;;;;;;;3.33;2.67;;;;;21.21;55.49;100228.16;146607;569;46021;-80
2021/11/27 09:56:33;;;;;;;;;3.00;3.00;;;;;21.27;50.98;100242.22;146606;595;46912;-79
2021/11/27 09:59:26;;;;;;;;;3.00;3.00;;;;;21.25;51.26;100236.09;146610;639;45021;-79
2021/11/27 10:02:20;;;;;;;;;4.00;2.33;;;;;21.18;51.86;100232.53;146605;600;46016;-80
2021/11/27 10:05:16;;;;;;;;;2.00;2.00;;;;;21.16;52.29;100227.28;146607;585;46020;-81
2021/11/27 10:08:10;;;;;;;;;1.33;1.33;;;;;21.18;50.94;100220.25;146605;651;46912;-81
2021/11/27 10:11:02;;;;;;;;;3.00;2.33;;;;;21.24;51.40;100214.09;146608;569;47010;-79
2021/11/27 10:13:54;;;;;;;;;3.33;2.33;;;;;21.28;53.42;100212.31;146607;662;46017;-80
2021/11/27 10:17:08;;;;;;;;;4.00;1.67;;;;;20.42;55.66;100043.66;146609;620;47010;-79
2021/11/27 10:20:03;;;;;;;;;4.00;2.67;;;;;21.47;49.19;100208.84;146603;565;47015;-79
2021/11/27 10:22:57;;;;;;;;;1.67;1.67;;;;;21.42;48.91;100197.41;146607;593;47021;-79
2021/11/27 10:25:50;;;;;;;;;2.67;2.00;;;;;21.31;47.27;100191.22;146606;576;46911;-80
2021/11/27 10:28:42;;;;;;;;;3.33;2.33;;;;;21.29;52.37;100185.09;146611;649;46011;-81
2021/11/27 10:31:34;;;;;;;;;2.67;1.67;;;;;21.27;49.60;100178.94;146607;638;46016;-81
2021/11/27 10:34:28;;;;;;;;;2.00;1.00;;;;;21.27;50.00;100178.94;146609;625;46010;-80
2021/11/27 10:37:41;;;;;;;;;1.00;1.00;;;;;21.31;51.66;100172.75;146607;597;46016;-81
2021/11/27 10:40:34;;;;;;;;;3.33;3.00;;;;;21.37;52.91;100178.06;146608;596;46020;-81
2021/11/27 10:43:26;;;;;;;;;7.00;5.33;;;;;21.39;50.21;100166.63;146605;581;46014;-82
2021/11/27 10:46:29;;;;;;;;;3.33;3.00;;;;;21.41;49.10;100162.25;146610;631;46020;-82
2021/11/27 10:49:30;;;;;;;;;0.67;0.67;;;;;21.48;48.08;100165.75;146609;571;46012;-82
2021/11/27 10:52:24;;;;;;;;;1.67;1.67;;;;;21.55;50.50;100167.47;146609;585;46021;-80
2021/11/27 10:55:29;;;;;;;;;3.67;2.00;;;;;21.72;52.52;100171.84;146607;572;46016;-81
2021/11/27 10:58:21;;;;;;;;;1.00;1.00;;;;;21.90;52.02;100159.47;146612;564;45021;-81
2021/11/27 11:01:13;;;;;;;;;2.00;2.00;;;;;22.10;47.78;100155.84;146607;606;46012;-82
2021/11/27 11:04:21;;;;;;;;;2.33;1.67;;;;;22.13;53.66;100154.06;146610;593;45020;-80
2021/11/27 11:07:26;;;;;;;;;2.00;2.00;;;;;22.10;54.07;100159.37;146607;581;46017;-83
2021/11/27 11:10:24;;;;;;;;;3.00;3.00;;;;;22.16;53.02;100162.87;146609;704;46010;-82
2021/11/27 11:13:17;;;;;;;;;7.33;1.67;;;;;22.16;48.48;100157.59;146607;594;46014;-82
2021/11/27 11:16:12;;;;;;;;;1.67;1.67;;;;;21.98;47.05;100146.22;146609;601;46020;-83
2021/11/27 11:19:21;;;;;;;;;3.00;1.33;;;;;21.70;51.95;100161.28;146605;728;46016;-82
2021/11/27 11:22:20;;;;;;;;;1.67;1.67;;;;;21.39;49.94;100147.31;146609;574;46010;-82
2021/11/27 11:25:13;;;;;;;;;1.00;1.00;;;;;21.11;50.56;100149.06;146607;658;47012;-80
2021/11/27 11:28:18;;;;;;;;;1.33;1.33;;;;;20.87;51.76;100132.41;146609;641;46021;-79
2021/11/27 11:31:19;;;;;;;;;0.00;0.00;;;;;20.80;54.56;100129.75;146608;699;46016;-81
2021/11/27 11:34:10;;;;;;;;;1.67;1.67;;;;;20.73;54.62;100129.75;146606;708;46020;-80
2021/11/27 11:37:03;;;;;;;;;3.00;1.67;;;;;20.62;54.03;100130.62;146605;581;47012;-79
2021/11/27 11:39:57;;;;;;;;;1.00;1.00;;;;;20.47;54.42;100134.97;146607;577;46010;-81
2021/11/27 11:42:49;;;;;;;;;3.00;2.00;;;;;20.34;54.89;100124.41;146604;670;46016;-79
2021/11/27 11:45:42;;;;;;;;;2.00;2.00;;;;;20.25;56.21;100131.41;146610;592;46020;-82
2021/11/27 11:48:35;;;;;;;;;1.00;1.00;;;;;20.21;58.49;100107.69;146608;569;46016;-89
2021/11/27 11:52:00;;;;;;;;;1.33;0.67;;;;;20.24;60.92;100110.34;146607;639;46021;-81
2021/11/27 11:54:55;;;;;;;;;2.00;2.00;;;;;20.32;55.67;100102.47;146605;582;46031;-86
2021/11/27 11:57:58;;;;;;;;;1.67;1.33;;;;;20.50;57.56;100111.28;146609;585;46010;-74
2021/11/27 12:01:02;;;;;;;;;2.67;2.67;;;;;20.63;56.99;100106.94;146607;657;46016;-79
2021/11/27 12:03:56;;;;;;;;;2.33;2.33;;;;;20.55;55.00;100092.84;146607;572;46020;-82
2021/11/27 12:06:48;;;;;;;;;5.00;2.33;;;;;20.66;55.88;100084.97;146602;580;47014;-80
2021/11/27 12:10:16;;;;;;;;;2.00;1.33;;;;;20.06;56.70;99925.22;146609;686;46010;-81
2021/11/27 12:13:31;;;;;;;;;2.67;2.00;;;;;21.32;56.14;100077.84;146606;623;46012;-80
2021/11/27 12:16:23;;;;;;;;;3.00;1.67;;;;;21.47;51.97;100079.59;146608;594;46020;-79
2021/11/27 12:19:16;;;;;;;;;4.00;3.00;;;;;21.52;51.68;100069.88;146609;655;45912;-76
2021/11/27 12:22:44;;;;;;;;;3.67;2.67;;;;;21.37;51.90;100068.19;146608;604;46020;-86
2021/11/27 12:25:36;;;;;;;;;2.00;2.00;;;;;21.12;52.40;100063.81;146606;675;46016;-84
2021/11/27 12:28:28;;;;;;;;;1.33;1.33;;;;;20.83;52.21;100048.94;146607;678;46021;-86
2021/11/27 12:31:28;;;;;;;;;1.33;0.33;;;;;20.57;53.53;100056.00;146606;572;46012;-84
2021/11/27 12:34:39;;;;;;;;;4.67;2.33;;;;;20.34;54.30;100055.94;146609;628;46011;-82
2021/11/27 12:37:33;;;;;;;;;4.67;2.33;;;;;20.22;52.83;100052.44;146608;586;46012;-83
2021/11/27 12:40:50;;;;;;;;;4.00;2.00;;;;;20.30;57.21;100045.41;146608;563;46031;-84
2021/11/27 12:43:42;;;;;;;;;3.00;1.33;;;;;20.40;55.01;100058.59;146607;581;46025;-84
2021/11/27 12:46:34;;;;;;;;;0.00;0.00;;;;;20.40;54.95;100061.22;146606;602;46020;-86
2021/11/27 12:49:56;;;;;;;;;2.33;0.67;;;;;20.30;57.26;100049.81;146608;571;46012;-86
2021/11/27 12:52:49;;;;;;;;;2.00;1.00;;;;;20.17;56.37;100053.31;146611;706;46026;-86
2021/11/27 12:55:42;;;;;;;;;5.67;2.67;;;;;20.03;57.49;100053.25;146608;588;46016;-87
2021/11/27 12:58:36;;;;;;;;;2.00;2.00;;;;;19.91;57.68;100055.91;146610;581;46021;-83
2021/11/27 13:01:32;;;;;;;;;5.67;2.00;;;;;19.78;57.52;100053.22;146608;698;45016;-90
2021/11/27 13:04:27;;;;;;;;;1.00;1.00;;;;;19.69;58.58;100047.94;146608;619;46020;-84
2021/11/27 13:07:29;;;;;;;;;1.33;1.33;;;;;19.59;58.26;100033.84;146611;590;46012;-88
2021/11/27 13:10:22;;;;;;;;;4.00;2.00;;;;;19.50;57.58;100036.44;146610;577;46010;-88
2021/11/27 13:13:26;;;;;;;;;2.67;2.00;;;;;19.42;58.23;100024.13;146607;598;46012;-79
2021/11/27 13:16:25;;;;;;;;;2.00;1.00;;;;;19.33;57.73;100040.72;146611;612;46010;-86
2021/11/27 13:19:32;;;;;;;;;3.00;2.00;;;;;19.24;58.72;100038.06;146606;569;46912;-85
2021/11/27 13:22:25;;;;;;;;;1.67;1.67;;;;;19.18;59.45;100032.78;146608;631;46029;-83
2021/11/27 13:25:17;;;;;;;;;1.67;1.67;;;;;19.11;58.83;100034.50;146600;590;48012;-87